createdAt,value
2022-08-03T00:00:28.673Z,65.60
2022-08-03T00:01:28.767Z,65.70
2022-08-03T00:02:28.863Z,65.70
2022-08-03T00:03:29.002Z,65.70
2022-08-03T00:04:34.415Z,65.80
2022-08-03T00:05:29.058Z,65.80
2022-08-03T00:06:32.637Z,65.80
2022-08-03T00:07:29.297Z,65.83
2022-08-03T00:08:29.328Z,65.73
2022-08-03T00:09:29.494Z,65.73
2022-08-03T00:10:29.433Z,65.73
2022-08-03T00:11:29.520Z,65.73
2022-08-03T00:12:29.605Z,65.73
2022-08-03T00:13:29.706Z,65.83
2022-08-03T00:14:29.792Z,65.83
2022-08-03T00:15:29.881Z,65.83
2022-08-03T00:16:29.940Z,65.93
2022-08-03T00:17:30.051Z,65.93
2022-08-03T00:18:30.171Z,66.03
2022-08-03T00:19:30.301Z,66.13
2022-08-03T00:20:30.288Z,65.93
2022-08-03T00:21:30.393Z,66.03
2022-08-03T00:22:30.424Z,65.93
2022-08-03T00:23:33.397Z,65.93
2022-08-03T00:24:30.655Z,66.03
2022-08-03T00:25:30.699Z,66.13
2022-08-03T00:26:30.794Z,66.03
2022-08-03T00:27:32.680Z,66.03
2022-08-03T00:28:30.991Z,65.93
2022-08-03T00:29:31.108Z,66.03
2022-08-03T00:30:31.151Z,65.93
2022-08-03T00:31:45.023Z,65.93
2022-08-03T00:32:31.302Z,66.03
2022-08-03T00:33:31.337Z,65.93
2022-08-03T00:34:36.453Z,66.03
2022-08-03T00:35:49.234Z,66.03
2022-08-03T00:36:31.643Z,65.93
2022-08-03T00:37:40.777Z,65.93
2022-08-03T00:38:31.765Z,66.03
2022-08-03T00:39:31.842Z,66.03
2022-08-03T00:40:31.865Z,66.03
2022-08-03T00:41:32.025Z,65.93
2022-08-03T00:42:32.043Z,65.93
2022-08-03T00:43:32.140Z,65.93
2022-08-03T00:44:32.289Z,65.83
2022-08-03T00:45:32.297Z,65.93
2022-08-03T00:46:32.400Z,65.93
2022-08-03T00:47:32.490Z,65.93
2022-08-03T00:48:33.630Z,65.93
2022-08-03T00:49:32.727Z,65.93
2022-08-03T00:50:32.766Z,65.93
2022-08-03T00:51:32.859Z,65.93
2022-08-03T00:52:32.947Z,65.93
2022-08-03T00:53:33.137Z,65.83
2022-08-03T00:54:33.144Z,65.83
2022-08-03T00:55:33.246Z,65.73
2022-08-03T00:56:33.292Z,65.73
2022-08-03T00:57:33.385Z,65.63
2022-08-03T00:58:33.379Z,65.53
2022-08-03T00:59:33.491Z,65.53
2022-08-03T01:00:33.561Z,65.43
2022-08-03T01:01:33.814Z,65.56
2022-08-03T01:02:33.755Z,65.56
2022-08-03T01:03:33.937Z,65.56
2022-08-03T01:04:33.939Z,65.46
2022-08-03T01:05:33.960Z,65.46
2022-08-03T01:06:34.106Z,65.36
2022-08-03T01:07:34.129Z,65.26
2022-08-03T01:08:34.202Z,65.36
2022-08-03T01:09:34.310Z,65.36
2022-08-03T01:10:34.339Z,65.46
2022-08-03T01:11:34.462Z,65.46
2022-08-03T01:12:34.491Z,65.46
2022-08-03T01:14:04.038Z,65.56
2022-08-03T01:14:34.697Z,65.66
2022-08-03T01:15:34.735Z,65.56
2022-08-03T01:16:37.048Z,65.46
2022-08-03T01:17:34.888Z,65.46
2022-08-03T01:18:34.977Z,65.39
2022-08-03T01:19:35.101Z,65.49
2022-08-03T01:20:35.179Z,65.49
2022-08-03T01:21:35.282Z,65.49
2022-08-03T01:22:35.304Z,65.59
2022-08-03T01:23:35.419Z,65.59
2022-08-03T01:24:35.543Z,65.69
2022-08-03T01:25:35.594Z,65.69
2022-08-03T01:26:35.681Z,65.69
2022-08-03T01:27:35.727Z,65.69
2022-08-03T01:28:36.718Z,65.69
2022-08-03T01:29:35.921Z,65.59
2022-08-03T01:30:35.953Z,65.69
2022-08-03T01:31:36.124Z,65.69
2022-08-03T01:33:03.456Z,65.59
2022-08-03T01:33:36.228Z,65.69
2022-08-03T01:34:36.343Z,65.79
2022-08-03T01:35:38.526Z,65.79
2022-08-03T01:36:36.514Z,65.69
2022-08-03T01:37:36.559Z,65.59
2022-08-03T01:38:36.571Z,65.69
2022-08-03T01:39:36.694Z,65.69
2022-08-03T01:40:36.759Z,65.83
2022-08-03T01:41:36.872Z,65.92
2022-08-03T01:42:36.986Z,65.92
2022-08-03T01:44:28.092Z,65.89
2022-08-03T01:44:37.162Z,65.72
2022-08-03T01:45:37.247Z,65.83
2022-08-03T01:46:37.371Z,65.83
2022-08-03T01:47:37.464Z,65.72
2022-08-03T01:48:37.504Z,65.62
2022-08-03T01:49:37.690Z,65.72
2022-08-03T01:50:37.627Z,65.83
2022-08-03T01:52:02.804Z,65.72
2022-08-03T01:52:37.847Z,65.72
2022-08-03T01:53:38.003Z,65.72
2022-08-03T01:54:38.084Z,65.72
2022-08-03T01:55:38.116Z,65.72
2022-08-03T01:56:38.229Z,65.72
2022-08-03T01:58:06.236Z,65.83
2022-08-03T01:58:38.328Z,65.83
2022-08-03T01:59:38.411Z,65.72
2022-08-03T02:00:38.575Z,65.72
2022-08-03T02:02:28.934Z,65.72
2022-08-03T02:02:38.853Z,65.72
2022-08-03T02:03:38.734Z,65.72
2022-08-03T02:04:38.839Z,65.72
2022-08-03T02:05:38.886Z,65.62
2022-08-03T02:07:01.178Z,65.62
2022-08-03T02:07:39.022Z,65.62
2022-08-03T02:08:39.138Z,65.72
2022-08-03T02:09:39.244Z,65.72
2022-08-03T02:10:39.288Z,65.62
2022-08-03T02:11:39.373Z,65.62
2022-08-03T02:12:39.410Z,65.42
2022-08-03T02:13:39.486Z,65.42
2022-08-03T02:14:39.595Z,65.52
2022-08-03T02:15:39.726Z,65.52
2022-08-03T02:16:39.735Z,65.42
2022-08-03T02:17:40.346Z,65.42
2022-08-03T02:18:39.875Z,65.55
2022-08-03T02:19:39.934Z,65.45
2022-08-03T02:20:40.044Z,65.36
2022-08-03T02:21:57.091Z,65.66
2022-08-03T02:22:40.185Z,65.66
2022-08-03T02:23:40.242Z,65.75
2022-08-03T02:24:40.321Z,65.86
2022-08-03T02:25:40.457Z,65.86
2022-08-03T02:26:40.541Z,65.86
2022-08-03T02:27:43.689Z,65.95
2022-08-03T02:28:40.753Z,65.95
2022-08-03T02:29:41.128Z,66.05
2022-08-03T02:30:40.913Z,66.05
2022-08-03T02:31:40.995Z,66.05
2022-08-03T02:32:41.013Z,66.16
2022-08-03T02:33:41.093Z,66.16
2022-08-03T02:34:41.163Z,66.05
2022-08-03T02:35:41.228Z,66.05
2022-08-03T02:36:41.368Z,66.05
2022-08-03T02:37:42.647Z,65.86
2022-08-03T02:38:41.490Z,65.86
2022-08-03T02:39:41.592Z,65.75
2022-08-03T02:40:41.657Z,65.86
2022-08-03T02:41:41.822Z,65.75
2022-08-03T02:42:41.846Z,65.75
2022-08-03T02:44:06.500Z,65.66
2022-08-03T02:44:42.085Z,65.45
2022-08-03T02:45:45.341Z,65.45
2022-08-03T02:46:42.217Z,65.55
2022-08-03T02:47:53.350Z,65.66
2022-08-03T02:48:42.357Z,65.66
2022-08-03T02:49:51.571Z,65.75
2022-08-03T02:50:42.542Z,65.86
2022-08-03T02:51:42.645Z,65.66
2022-08-03T02:52:42.716Z,65.66
2022-08-03T02:53:42.821Z,65.95
2022-08-03T02:54:42.866Z,65.86
2022-08-03T02:55:45.670Z,65.86
2022-08-03T02:56:43.050Z,65.86
2022-08-03T02:57:43.099Z,65.95
2022-08-03T02:58:43.177Z,65.86
2022-08-03T02:59:43.244Z,65.86
2022-08-03T03:00:43.410Z,65.86
2022-08-03T03:01:43.445Z,65.86
2022-08-03T03:02:43.882Z,65.75
2022-08-03T03:03:45.063Z,65.75
2022-08-03T03:05:52.873Z,65.66
2022-08-03T03:06:00.203Z,65.75
2022-08-03T03:06:43.827Z,65.86
2022-08-03T03:07:51.250Z,65.66
2022-08-03T03:09:05.304Z,65.69
2022-08-03T03:09:44.124Z,65.69
2022-08-03T03:10:44.251Z,65.69
2022-08-03T03:11:44.353Z,65.69
2022-08-03T03:12:44.369Z,65.78
2022-08-03T03:13:44.530Z,65.78
2022-08-03T03:14:44.523Z,65.89
2022-08-03T03:15:44.616Z,65.78
2022-08-03T03:16:44.677Z,65.69
2022-08-03T03:17:44.835Z,65.78
2022-08-03T03:18:44.850Z,65.78
2022-08-03T03:19:44.944Z,65.78
2022-08-03T03:20:45.027Z,65.78
2022-08-03T03:21:45.170Z,65.78
2022-08-03T03:22:45.304Z,65.78
2022-08-03T03:23:45.264Z,65.69
2022-08-03T03:24:45.357Z,65.69
2022-08-03T03:25:45.439Z,65.69
2022-08-03T03:26:45.542Z,65.69
2022-08-03T03:27:47.120Z,65.69
2022-08-03T03:28:45.708Z,65.69
2022-08-03T03:29:45.803Z,65.69
2022-08-03T03:30:53.074Z,65.59
2022-08-03T03:31:46.235Z,65.59
2022-08-03T03:32:46.036Z,65.59
2022-08-03T03:33:46.140Z,65.59
2022-08-03T03:34:46.218Z,65.59
2022-08-03T03:35:46.392Z,65.48
2022-08-03T03:36:46.408Z,65.48
2022-08-03T03:37:46.450Z,65.48
2022-08-03T03:38:46.534Z,65.48
2022-08-03T03:39:46.602Z,65.48
2022-08-03T03:40:47.250Z,65.48
2022-08-03T03:41:46.791Z,65.48
2022-08-03T03:42:46.864Z,65.39
2022-08-03T03:43:46.918Z,65.39
2022-08-03T03:44:47.001Z,65.39
2022-08-03T03:45:47.100Z,65.19
2022-08-03T03:46:47.211Z,65.09
2022-08-03T03:47:47.274Z,65.12
2022-08-03T03:48:47.354Z,65.12
2022-08-03T03:49:47.440Z,65.01
2022-08-03T03:50:47.544Z,65.01
2022-08-03T03:51:47.629Z,65.01
2022-08-03T03:52:47.673Z,65.12
2022-08-03T03:53:47.760Z,65.22
2022-08-03T03:54:47.861Z,65.12
2022-08-03T03:56:01.746Z,65.12
2022-08-03T03:56:48.041Z,65.22
2022-08-03T03:57:48.121Z,65.22
2022-08-03T03:58:48.199Z,65.22
2022-08-03T03:59:48.310Z,65.12
2022-08-03T04:00:48.429Z,65.12
2022-08-03T04:01:48.514Z,65.12
2022-08-03T04:02:48.601Z,65.12
2022-08-03T04:03:48.662Z,65.15
2022-08-03T04:04:48.730Z,65.15
2022-08-03T04:05:48.873Z,65.25
2022-08-03T04:06:48.887Z,65.25
2022-08-03T04:07:48.974Z,65.25
2022-08-03T04:08:49.450Z,65.35
2022-08-03T04:09:49.138Z,65.35
2022-08-03T04:10:49.222Z,65.25
2022-08-03T04:11:49.333Z,65.35
2022-08-03T04:12:50.479Z,65.35
2022-08-03T04:13:50.344Z,65.45
2022-08-03T04:14:49.560Z,65.45
2022-08-03T04:15:49.606Z,65.45
2022-08-03T04:16:49.725Z,65.35
2022-08-03T04:17:49.783Z,65.35
2022-08-03T04:18:49.832Z,65.25
2022-08-03T04:19:49.926Z,65.25
2022-08-03T04:20:50.010Z,65.15
2022-08-03T04:21:50.146Z,65.05
2022-08-03T04:22:50.156Z,65.05
2022-08-03T04:23:50.259Z,65.05
2022-08-03T04:24:50.369Z,65.05
2022-08-03T04:25:50.419Z,65.28
2022-08-03T04:26:52.779Z,65.28
2022-08-03T04:28:07.689Z,65.38
2022-08-03T04:28:50.657Z,65.38
2022-08-03T04:29:50.735Z,65.38
2022-08-03T04:30:50.811Z,65.38
2022-08-03T04:31:50.926Z,65.38
2022-08-03T04:32:50.987Z,65.38
2022-08-03T04:33:51.029Z,65.38
2022-08-03T04:34:51.111Z,65.48
2022-08-03T04:36:01.800Z,65.48
2022-08-03T04:36:51.329Z,65.38
2022-08-03T04:37:51.357Z,65.38
2022-08-03T04:38:51.481Z,65.48
2022-08-03T04:39:51.529Z,65.48
2022-08-03T04:40:51.604Z,65.48
2022-08-03T04:42:04.290Z,65.48
2022-08-03T04:42:51.795Z,65.58
2022-08-03T04:43:51.882Z,65.58
2022-08-03T04:44:51.963Z,65.68
2022-08-03T04:45:52.057Z,65.68
2022-08-03T04:46:52.930Z,65.68
2022-08-03T04:47:52.212Z,65.68
2022-08-03T04:48:52.361Z,65.68
2022-08-03T04:49:52.365Z,65.68
2022-08-03T04:50:52.448Z,65.78
2022-08-03T04:51:59.117Z,65.81
2022-08-03T04:52:52.630Z,65.91
2022-08-03T04:53:52.733Z,66.01
2022-08-03T04:54:52.797Z,66.11
2022-08-03T04:55:52.873Z,66.21
2022-08-03T04:56:52.955Z,66.41
2022-08-03T04:57:53.051Z,66.41
2022-08-03T04:58:53.096Z,66.41
2022-08-03T04:59:55.660Z,66.52
2022-08-03T05:00:53.254Z,66.61
2022-08-03T05:01:53.383Z,66.61
2022-08-03T05:02:53.419Z,66.71
2022-08-03T05:03:53.539Z,66.71
2022-08-03T05:04:53.588Z,66.82
2022-08-03T05:06:01.738Z,66.82
2022-08-03T05:06:55.203Z,66.78
2022-08-03T05:07:53.863Z,66.99
2022-08-03T05:08:54.009Z,66.99
2022-08-03T05:10:01.756Z,66.88
2022-08-03T05:10:54.091Z,66.88
2022-08-03T05:11:54.201Z,66.88
2022-08-03T05:12:54.279Z,66.99
2022-08-03T05:13:54.344Z,66.88
2022-08-03T05:14:54.400Z,66.78
2022-08-03T05:15:54.544Z,66.88
2022-08-03T05:16:54.551Z,66.78
2022-08-03T05:17:54.642Z,66.88
2022-08-03T05:18:54.740Z,66.78
2022-08-03T05:19:55.778Z,66.78
2022-08-03T05:20:54.892Z,66.88
2022-08-03T05:21:54.974Z,66.78
2022-08-03T05:22:55.047Z,66.88
2022-08-03T05:23:55.162Z,66.58
2022-08-03T05:24:55.207Z,66.68
2022-08-03T05:25:55.324Z,66.58
2022-08-03T05:26:55.421Z,66.58
2022-08-03T05:27:55.463Z,66.48
2022-08-03T05:28:55.569Z,66.48
2022-08-03T05:29:55.658Z,66.48
2022-08-03T05:30:55.727Z,66.48
2022-08-03T05:31:55.766Z,66.58
2022-08-03T05:32:55.849Z,66.68
2022-08-03T05:33:55.958Z,66.78
2022-08-03T05:34:56.005Z,66.99
2022-08-03T05:36:03.213Z,66.88
2022-08-03T05:36:56.179Z,66.99
2022-08-03T05:37:56.271Z,66.99
2022-08-03T05:39:00.807Z,66.99
2022-08-03T05:39:56.437Z,66.99
2022-08-03T05:40:57.585Z,66.99
2022-08-03T05:41:56.616Z,66.88
2022-08-03T05:42:56.730Z,66.88
2022-08-03T05:43:56.829Z,66.88
2022-08-03T05:44:56.878Z,66.88
2022-08-03T05:46:12.262Z,66.88
2022-08-03T05:46:57.042Z,66.99
2022-08-03T05:47:57.132Z,66.88
2022-08-03T05:48:57.321Z,66.88
2022-08-03T05:49:57.293Z,66.99
2022-08-03T05:50:57.372Z,66.99
2022-08-03T05:52:00.401Z,66.99
2022-08-03T05:52:57.539Z,66.99
2022-08-03T05:53:57.693Z,66.99
2022-08-03T05:54:57.880Z,66.88
2022-08-03T05:56:03.508Z,66.88
2022-08-03T05:56:57.903Z,66.88
2022-08-03T05:57:58.045Z,66.88
2022-08-03T05:58:58.073Z,66.88
2022-08-03T05:59:58.513Z,66.88
2022-08-03T06:00:58.260Z,66.88
2022-08-03T06:01:58.420Z,66.88
2022-08-03T06:02:58.436Z,66.78
2022-08-03T06:03:58.556Z,66.78
2022-08-03T06:04:58.626Z,66.78
2022-08-03T06:06:00.335Z,66.68
2022-08-03T06:06:58.749Z,66.78
2022-08-03T06:07:58.837Z,66.78
2022-08-03T06:08:58.909Z,66.78
2022-08-03T06:10:37.132Z,66.78
2022-08-03T06:10:59.061Z,66.78
2022-08-03T06:11:59.139Z,66.78
2022-08-03T06:12:59.207Z,66.78
2022-08-03T06:13:59.337Z,66.88
2022-08-03T06:14:59.377Z,66.88
2022-08-03T06:15:59.460Z,66.99
2022-08-03T06:16:59.530Z,66.99
2022-08-03T06:18:02.038Z,66.99
2022-08-03T06:18:59.692Z,66.99
2022-08-03T06:19:59.866Z,66.99
2022-08-03T06:21:14.831Z,66.99
2022-08-03T06:22:00.013Z,66.99
2022-08-03T06:23:01.195Z,67.08
2022-08-03T06:24:00.133Z,67.18
2022-08-03T06:25:04.966Z,67.18
2022-08-03T06:26:00.300Z,67.18
2022-08-03T06:27:00.376Z,67.18
2022-08-03T06:28:00.464Z,67.18
2022-08-03T06:29:00.592Z,67.18
2022-08-03T06:30:00.652Z,67.29
2022-08-03T06:31:00.718Z,67.38
2022-08-03T06:32:00.796Z,67.25
2022-08-03T06:33:00.884Z,67.25
2022-08-03T06:34:32.396Z,67.25
2022-08-03T06:35:01.082Z,67.25
2022-08-03T06:36:01.113Z,67.25
2022-08-03T06:37:02.304Z,67.25
2022-08-03T06:38:01.326Z,67.25
2022-08-03T06:39:01.414Z,67.15
2022-08-03T06:40:01.498Z,67.05
2022-08-03T06:41:01.538Z,67.05
2022-08-03T06:42:01.635Z,67.05
2022-08-03T06:43:01.772Z,67.15
2022-08-03T06:44:03.173Z,67.25
2022-08-03T06:45:01.861Z,67.35
2022-08-03T06:46:01.936Z,67.45
2022-08-03T06:47:02.042Z,67.55
2022-08-03T06:48:02.086Z,67.55
2022-08-03T06:49:02.275Z,67.65
2022-08-03T06:50:12.835Z,67.65
2022-08-03T06:51:02.345Z,67.76
2022-08-03T06:52:05.424Z,67.76
2022-08-03T06:53:02.512Z,67.85
2022-08-03T06:54:02.619Z,67.96
2022-08-03T06:55:02.712Z,68.05
2022-08-03T06:56:02.840Z,68.02
2022-08-03T06:57:02.878Z,67.92
2022-08-03T06:58:03.465Z,67.92
2022-08-03T06:59:03.033Z,67.82
2022-08-03T07:00:10.995Z,67.72
2022-08-03T07:01:03.272Z,67.72
2022-08-03T07:02:03.549Z,67.72
2022-08-03T07:03:03.377Z,67.72
2022-08-03T07:04:03.476Z,67.72
2022-08-03T07:05:03.580Z,67.72
2022-08-03T07:06:03.616Z,67.92
2022-08-03T07:07:03.682Z,68.02
2022-08-03T07:08:03.868Z,68.12
2022-08-03T07:09:03.830Z,68.12
2022-08-03T07:10:03.921Z,67.92
2022-08-03T07:11:04.024Z,67.82
2022-08-03T07:12:04.129Z,67.82
2022-08-03T07:13:04.212Z,67.92
2022-08-03T07:14:04.256Z,67.92
2022-08-03T07:15:04.402Z,67.92
2022-08-03T07:16:04.428Z,67.82
2022-08-03T07:17:11.453Z,67.82
2022-08-03T07:18:04.616Z,67.69
2022-08-03T07:19:04.692Z,67.59
2022-08-03T07:20:04.805Z,67.69
2022-08-03T07:21:04.846Z,67.59
2022-08-03T07:22:04.918Z,67.69
2022-08-03T07:23:05.006Z,67.79
2022-08-03T07:24:05.098Z,67.89
2022-08-03T07:25:05.306Z,67.99
2022-08-03T07:26:05.216Z,68.09
2022-08-03T07:27:05.297Z,68.09
2022-08-03T07:28:05.357Z,68.09
2022-08-03T07:29:15.154Z,67.99
2022-08-03T07:30:05.563Z,67.89
2022-08-03T07:31:05.596Z,67.89
2022-08-03T07:32:05.688Z,67.89
2022-08-03T07:33:05.771Z,67.99
2022-08-03T07:34:05.885Z,67.96
2022-08-03T07:35:08.740Z,68.19
2022-08-03T07:36:06.975Z,68.26
2022-08-03T07:37:06.118Z,68.46
2022-08-03T07:38:06.181Z,68.66
2022-08-03T07:39:15.429Z,68.96
2022-08-03T07:40:06.446Z,68.96
2022-08-03T07:41:06.458Z,68.96
2022-08-03T07:42:06.541Z,68.86
2022-08-03T07:43:06.641Z,68.86
2022-08-03T07:44:06.731Z,68.76
2022-08-03T07:45:06.833Z,68.76
2022-08-03T07:46:06.911Z,68.86
2022-08-03T07:47:06.952Z,68.76
2022-08-03T07:48:11.777Z,68.82
2022-08-03T07:49:07.159Z,68.93
2022-08-03T07:50:08.830Z,68.93
2022-08-03T07:51:07.300Z,69.02
2022-08-03T07:52:07.429Z,69.12
2022-08-03T07:53:07.473Z,68.93
2022-08-03T07:54:07.589Z,68.93
2022-08-03T07:55:07.659Z,68.93
2022-08-03T07:56:11.360Z,68.82
2022-08-03T07:57:07.809Z,68.73
2022-08-03T07:58:07.918Z,68.73
2022-08-03T07:59:07.973Z,68.43
2022-08-03T08:00:08.023Z,68.19
2022-08-03T08:01:08.160Z,68.19
2022-08-03T08:02:08.334Z,68.09
2022-08-03T08:03:08.278Z,68.09
2022-08-03T08:04:08.355Z,68.09
2022-08-03T08:05:08.454Z,68.19
2022-08-03T08:06:08.521Z,68.19
2022-08-03T08:07:08.601Z,68.19
2022-08-03T08:08:08.703Z,68.19
2022-08-03T08:09:08.784Z,68.19
2022-08-03T08:10:08.877Z,68.09
2022-08-03T08:11:08.975Z,68.09
2022-08-03T08:12:15.282Z,68.29
2022-08-03T08:13:09.147Z,68.19
2022-08-03T08:14:09.224Z,68.19
2022-08-03T08:15:09.328Z,68.19
2022-08-03T08:16:09.453Z,68.09
2022-08-03T08:17:09.498Z,68.09
2022-08-03T08:18:09.576Z,68.19
2022-08-03T08:19:09.720Z,68.19
2022-08-03T08:20:09.765Z,68.26
2022-08-03T08:21:09.813Z,68.16
2022-08-03T08:22:09.910Z,68.06
2022-08-03T08:23:24.185Z,68.06
2022-08-03T08:24:18.036Z,67.96
2022-08-03T08:25:10.216Z,68.06
2022-08-03T08:26:10.267Z,68.06
2022-08-03T08:27:10.318Z,68.16
2022-08-03T08:28:22.276Z,68.66
2022-08-03T08:29:10.435Z,68.66
2022-08-03T08:30:13.023Z,68.76
2022-08-03T08:31:10.607Z,69.13
2022-08-03T08:32:10.703Z,69.43
2022-08-03T08:33:22.180Z,69.43
2022-08-03T08:34:10.880Z,69.32
2022-08-03T08:35:10.977Z,69.23
2022-08-03T08:36:15.180Z,69.13
2022-08-03T08:37:11.150Z,68.93
2022-08-03T08:38:11.229Z,68.82
2022-08-03T08:39:11.348Z,68.82
2022-08-03T08:40:11.422Z,68.59
2022-08-03T08:41:11.524Z,68.29
2022-08-03T08:42:11.676Z,67.69
2022-08-03T08:43:11.673Z,67.30
2022-08-03T08:44:11.750Z,67.19
2022-08-03T08:45:11.867Z,67.19
2022-08-03T08:46:11.899Z,67.49
2022-08-03T08:47:12.001Z,67.99
2022-08-03T08:48:12.052Z,68.06
2022-08-03T08:49:12.254Z,68.06
2022-08-03T08:50:27.471Z,68.06
2022-08-03T08:51:12.324Z,67.96
2022-08-03T08:52:29.588Z,68.26
2022-08-03T08:53:17.549Z,68.06
2022-08-03T08:54:12.563Z,67.96
2022-08-03T08:55:12.676Z,67.96
2022-08-03T08:56:12.720Z,68.06
2022-08-03T08:57:33.509Z,67.96
2022-08-03T08:58:12.890Z,67.86
2022-08-03T08:59:12.975Z,68.06
2022-08-03T09:00:13.098Z,68.36
2022-08-03T09:01:13.212Z,68.53
2022-08-03T09:02:13.275Z,68.43
2022-08-03T09:03:13.306Z,68.03
2022-08-03T09:04:13.379Z,67.93
2022-08-03T09:05:13.495Z,67.83
2022-08-03T09:06:13.517Z,67.83
2022-08-03T09:07:20.065Z,67.83
2022-08-03T09:08:13.821Z,67.73
2022-08-03T09:10:00.288Z,67.63
2022-08-03T09:10:17.068Z,67.63
2022-08-03T09:11:13.956Z,67.73
2022-08-03T09:12:37.455Z,67.63
2022-08-03T09:13:14.092Z,67.60
2022-08-03T09:14:34.382Z,67.50
2022-08-03T09:15:17.271Z,67.40
2022-08-03T09:16:14.376Z,67.40
2022-08-03T09:17:17.564Z,67.40
2022-08-03T09:18:14.472Z,67.20
2022-08-03T09:19:14.549Z,67.20
2022-08-03T09:20:14.641Z,67.30
2022-08-03T09:21:30.663Z,67.20
2022-08-03T09:22:14.818Z,67.47
2022-08-03T09:23:51.408Z,67.86
2022-08-03T09:24:31.250Z,68.16
2022-08-03T09:25:24.308Z,67.66
2022-08-03T09:26:15.118Z,67.77
2022-08-03T09:27:15.358Z,67.77
2022-08-03T09:28:33.700Z,67.57
2022-08-03T09:29:15.637Z,67.47
2022-08-03T09:30:33.175Z,67.07
2022-08-03T09:31:15.490Z,66.77
2022-08-03T09:32:15.549Z,66.83
2022-08-03T09:33:15.619Z,66.34
2022-08-03T09:34:15.756Z,66.24
2022-08-03T09:35:16.077Z,66.24
2022-08-03T09:36:15.901Z,66.24
2022-08-03T09:37:16.324Z,66.04
2022-08-03T09:38:16.038Z,65.74
2022-08-03T09:39:16.129Z,65.31
2022-08-03T09:40:16.260Z,65.41
2022-08-03T09:41:16.334Z,65.71
2022-08-03T09:42:16.403Z,66.01
2022-08-03T09:43:16.436Z,65.91
2022-08-03T09:44:25.780Z,65.21
2022-08-03T09:45:16.592Z,64.81
2022-08-03T09:46:16.670Z,64.51
2022-08-03T09:47:17.145Z,64.58
2022-08-03T09:48:16.855Z,64.48
2022-08-03T09:49:17.065Z,64.28
2022-08-03T09:50:17.047Z,64.28
2022-08-03T09:52:11.058Z,64.58
2022-08-03T09:52:49.333Z,64.58
2022-08-03T09:53:17.321Z,64.58
2022-08-03T09:54:20.657Z,64.09
2022-08-03T09:55:23.515Z,63.59
2022-08-03T09:56:41.179Z,63.49
2022-08-03T09:57:17.860Z,63.19
2022-08-03T09:58:17.746Z,62.86
2022-08-03T09:59:17.810Z,62.96
2022-08-03T10:00:17.891Z,62.37
2022-08-03T10:01:24.265Z,61.47
2022-08-03T10:02:18.078Z,61.47
2022-08-03T10:03:18.202Z,61.57
2022-08-03T10:04:18.253Z,61.77
2022-08-03T10:05:19.854Z,61.96
2022-08-03T10:06:18.460Z,61.87
2022-08-03T10:07:18.676Z,61.96
2022-08-03T10:08:18.621Z,62.07
2022-08-03T10:09:18.742Z,61.47
2022-08-03T10:10:30.468Z,60.47
2022-08-03T10:11:18.905Z,59.75
2022-08-03T10:12:18.901Z,59.25
2022-08-03T10:13:18.984Z,59.55
2022-08-03T10:14:19.645Z,60.25
2022-08-03T10:16:23.557Z,60.94
2022-08-03T10:16:29.644Z,61.34
2022-08-03T10:17:19.518Z,61.04
2022-08-03T10:18:19.357Z,60.25
2022-08-03T10:19:19.402Z,59.72
2022-08-03T10:20:19.478Z,59.75
2022-08-03T10:21:19.598Z,59.22
2022-08-03T10:22:19.668Z,59.52
2022-08-03T10:23:19.805Z,59.72
2022-08-03T10:24:19.855Z,59.72
2022-08-03T10:25:19.949Z,59.52
2022-08-03T10:26:20.034Z,59.52
2022-08-03T10:27:20.266Z,59.52
2022-08-03T10:28:20.169Z,59.32
2022-08-03T10:29:20.258Z,59.42
2022-08-03T10:30:20.458Z,59.32
2022-08-03T10:31:20.474Z,58.83
2022-08-03T10:32:20.524Z,57.83
2022-08-03T10:33:50.824Z,57.43
2022-08-03T10:34:20.691Z,57.34
2022-08-03T10:35:21.601Z,57.43
2022-08-03T10:36:20.853Z,57.43
2022-08-03T10:37:21.040Z,57.43
2022-08-03T10:38:21.003Z,57.04
2022-08-03T10:39:21.117Z,56.44
2022-08-03T10:40:39.628Z,55.94
2022-08-03T10:41:21.243Z,55.65
2022-08-03T10:42:21.346Z,55.74
2022-08-03T10:43:21.399Z,55.85
2022-08-03T10:44:21.468Z,56.04
2022-08-03T10:45:21.595Z,55.85
2022-08-03T10:46:21.694Z,55.85
2022-08-03T10:47:21.687Z,55.85
2022-08-03T10:48:21.773Z,55.74
2022-08-03T10:49:34.227Z,55.74
2022-08-03T10:50:21.979Z,56.02
2022-08-03T10:51:22.024Z,56.12
2022-08-03T10:52:31.730Z,55.42
2022-08-03T10:53:22.186Z,55.52
2022-08-03T10:54:22.262Z,55.42
2022-08-03T10:55:22.438Z,55.22
2022-08-03T10:56:28.642Z,55.32
2022-08-03T10:57:22.597Z,55.42
2022-08-03T10:58:30.761Z,55.62
2022-08-03T10:59:28.017Z,55.72
2022-08-03T11:00:22.792Z,55.62
2022-08-03T11:01:22.962Z,55.32
2022-08-03T11:02:22.944Z,55.12
2022-08-03T11:03:23.076Z,54.82
2022-08-03T11:04:23.146Z,54.82
2022-08-03T11:05:23.190Z,54.82
2022-08-03T11:06:23.293Z,54.53
2022-08-03T11:07:23.688Z,54.60
2022-08-03T11:08:23.499Z,53.91
2022-08-03T11:09:23.528Z,53.41
2022-08-03T11:10:23.616Z,53.80
2022-08-03T11:11:23.721Z,54.21
2022-08-03T11:12:30.725Z,54.40
2022-08-03T11:13:23.921Z,54.40
2022-08-03T11:14:24.015Z,54.21
2022-08-03T11:15:24.152Z,54.28
2022-08-03T11:16:24.175Z,54.38
2022-08-03T11:17:24.229Z,54.28
2022-08-03T11:18:24.670Z,54.38
2022-08-03T11:19:24.393Z,54.68
2022-08-03T11:20:24.454Z,54.77
2022-08-03T11:21:28.820Z,54.68
2022-08-03T11:22:24.621Z,54.68
2022-08-03T11:24:03.994Z,54.77
2022-08-03T11:24:24.777Z,54.68
2022-08-03T11:25:53.737Z,54.57
2022-08-03T11:26:25.042Z,54.68
2022-08-03T11:27:24.991Z,54.87
2022-08-03T11:28:25.078Z,54.97
2022-08-03T11:29:25.150Z,55.27
2022-08-03T11:30:27.637Z,54.77
2022-08-03T11:31:49.866Z,54.28
2022-08-03T11:32:25.431Z,54.47
2022-08-03T11:33:25.551Z,55.27
2022-08-03T11:34:25.611Z,55.24
2022-08-03T11:35:25.690Z,55.34
2022-08-03T11:36:32.005Z,55.64
2022-08-03T11:37:31.393Z,55.74
2022-08-03T11:38:25.903Z,56.13
2022-08-03T11:39:25.978Z,55.94
2022-08-03T11:40:26.056Z,56.04
2022-08-03T11:41:26.156Z,55.94
2022-08-03T11:42:26.245Z,55.83
2022-08-03T11:43:30.632Z,55.11
2022-08-03T11:44:26.421Z,54.92
2022-08-03T11:45:26.506Z,54.72
2022-08-03T11:46:29.467Z,54.72
2022-08-03T11:47:26.677Z,54.52
2022-08-03T11:48:26.757Z,54.02
2022-08-03T11:49:26.915Z,54.13
2022-08-03T11:50:26.921Z,54.32
2022-08-03T11:51:27.037Z,55.51
2022-08-03T11:53:23.894Z,55.29
2022-08-03T11:54:24.991Z,55.19
2022-08-03T11:55:30.297Z,55.39
2022-08-03T11:56:25.147Z,55.29
2022-08-03T11:59:03.415Z,55.09
2022-08-03T11:59:25.512Z,54.49
2022-08-03T11:59:30.453Z,54.30
2022-08-03T12:00:30.494Z,54.10
2022-08-03T12:01:30.573Z,53.90
2022-08-03T12:02:30.677Z,53.80
2022-08-03T12:03:30.841Z,53.80
2022-08-03T12:04:30.790Z,54.20
2022-08-03T12:05:30.879Z,53.67
2022-08-03T12:06:30.972Z,53.38
2022-08-03T12:08:04.188Z,53.18
2022-08-03T12:08:31.227Z,53.38
2022-08-03T12:09:31.233Z,53.67
2022-08-03T12:10:31.308Z,54.17
2022-08-03T12:11:31.400Z,54.07
2022-08-03T12:12:31.509Z,53.97
2022-08-03T12:14:44.308Z,53.78
2022-08-03T12:14:56.080Z,53.97
2022-08-03T12:15:31.729Z,54.05
2022-08-03T12:16:31.803Z,53.65
2022-08-03T12:17:31.952Z,53.85
2022-08-03T12:18:31.988Z,53.65
2022-08-03T12:19:32.031Z,53.35
2022-08-03T12:20:35.257Z,53.45
2022-08-03T12:21:32.235Z,53.65
2022-08-03T12:22:32.307Z,53.65
2022-08-03T12:23:37.335Z,53.55
2022-08-03T12:24:32.415Z,53.35
2022-08-03T12:25:39.331Z,53.45
2022-08-03T12:26:32.594Z,53.75
2022-08-03T12:27:32.668Z,54.12
2022-08-03T12:28:36.742Z,53.72
2022-08-03T12:29:32.829Z,54.02
2022-08-03T12:30:34.467Z,54.22
2022-08-03T12:31:32.977Z,54.02
2022-08-03T12:32:33.078Z,54.91
2022-08-03T12:33:33.148Z,55.90
2022-08-03T12:34:33.228Z,55.70
2022-08-03T12:35:33.297Z,55.21
2022-08-03T12:36:33.393Z,54.71
2022-08-03T12:37:33.975Z,54.22
2022-08-03T12:38:33.544Z,54.22
2022-08-03T12:39:33.630Z,54.52
2022-08-03T12:40:33.740Z,54.02
2022-08-03T12:41:34.804Z,53.63
2022-08-03T12:42:34.994Z,53.33
2022-08-03T12:43:36.644Z,53.82
2022-08-03T12:44:34.044Z,53.92
2022-08-03T12:45:34.130Z,53.33
2022-08-03T12:46:34.245Z,53.03
2022-08-03T12:47:34.315Z,53.03
2022-08-03T12:48:34.391Z,52.83
2022-08-03T12:49:34.509Z,52.31
2022-08-03T12:50:34.552Z,52.22
2022-08-03T12:51:34.599Z,52.22
2022-08-03T12:52:34.728Z,52.34
2022-08-03T12:53:35.507Z,52.54
2022-08-03T12:54:34.854Z,52.73